createdAt,value
2018-10-19T00:00:52.823Z,4.80
2018-10-19T00:03:20.865Z,4.70
2018-10-19T00:05:48.926Z,4.60
2018-10-19T00:08:17.024Z,4.50
2018-10-19T00:10:45.270Z,4.60
2018-10-19T00:13:13.355Z,4.70
2018-10-19T00:15:41.613Z,4.70
2018-10-19T00:18:09.821Z,4.70
2018-10-19T00:20:37.884Z,4.70
2018-10-19T00:23:06.053Z,4.60
2018-10-19T00:25:34.133Z,4.50
2018-10-19T00:28:02.153Z,4.40
2018-10-19T00:30:30.182Z,4.30
2018-10-19T00:32:58.361Z,4.30
2018-10-19T00:35:26.590Z,4.40
2018-10-19T00:37:54.795Z,4.40
2018-10-19T00:40:23.008Z,4.40
2018-10-19T00:42:51.069Z,4.40
2018-10-19T00:45:23.206Z,4.30
2018-10-19T00:47:51.406Z,4.40
2018-10-19T00:50:19.549Z,4.40
2018-10-19T00:52:47.661Z,4.40
2018-10-19T00:55:15.899Z,4.30
2018-10-19T00:57:44.126Z,4.30
2018-10-19T01:00:12.365Z,4.30
2018-10-19T01:02:40.551Z,4.30
2018-10-19T01:05:08.901Z,4.40
2018-10-19T01:07:37.067Z,4.40
2018-10-19T01:10:05.160Z,4.50
2018-10-19T01:12:33.730Z,4.40
2018-10-19T01:15:02.023Z,4.40
2018-10-19T01:17:30.092Z,4.50
2018-10-19T01:19:58.305Z,4.40
2018-10-19T01:22:26.346Z,4.30
2018-10-19T01:24:54.653Z,4.10
2018-10-19T01:27:22.913Z,3.90
2018-10-19T01:29:50.994Z,3.80
2018-10-19T01:32:19.180Z,3.80
2018-10-19T01:34:47.609Z,3.90
2018-10-19T01:37:15.964Z,3.90
2018-10-19T01:39:44.093Z,3.90
2018-10-19T01:42:12.185Z,3.90
2018-10-19T01:44:40.446Z,3.80
2018-10-19T01:47:08.676Z,3.40
2018-10-19T01:49:36.693Z,3.20
2018-10-19T01:52:05.277Z,3.20
2018-10-19T01:54:33.458Z,3.20
2018-10-19T01:57:01.667Z,3.30
2018-10-19T01:59:29.925Z,3.30
2018-10-19T02:01:57.973Z,3.30
2018-10-19T02:04:26.108Z,3.20
2018-10-19T02:06:54.232Z,3.10
2018-10-19T02:09:22.422Z,3.10
2018-10-19T02:11:50.565Z,3.10
2018-10-19T02:14:18.641Z,3.20
2018-10-19T02:16:46.929Z,3.30
2018-10-19T02:19:15.130Z,3.40
2018-10-19T02:21:43.608Z,3.50
2018-10-19T02:24:11.774Z,3.70
2018-10-19T02:26:40.473Z,3.70
2018-10-19T02:29:08.773Z,3.70
2018-10-19T02:31:36.922Z,3.70
2018-10-19T02:34:05.488Z,3.70
2018-10-19T02:36:33.641Z,3.70
2018-10-19T02:39:01.994Z,3.60
2018-10-19T02:41:30.336Z,3.50
2018-10-19T02:43:58.690Z,3.50
2018-10-19T02:46:26.794Z,3.50
2018-10-19T02:48:54.918Z,3.50
2018-10-19T02:51:23.222Z,3.40
2018-10-19T02:53:51.555Z,3.40
2018-10-19T02:56:19.573Z,3.40
2018-10-19T02:58:47.809Z,3.40
2018-10-19T03:01:16.025Z,3.40
2018-10-19T03:03:44.166Z,3.40
2018-10-19T03:06:12.276Z,3.40
2018-10-19T03:08:40.485Z,3.40
2018-10-19T03:11:08.629Z,3.30
2018-10-19T03:13:36.716Z,3.20
2018-10-19T03:16:05.085Z,3.10
2018-10-19T03:18:33.204Z,3.00
2018-10-19T03:21:01.356Z,3.00
2018-10-19T03:23:29.611Z,3.00
2018-10-19T03:25:57.761Z,3.10
2018-10-19T03:28:25.864Z,3.10
2018-10-19T03:30:54.192Z,3.10
2018-10-19T03:33:22.310Z,3.10
2018-10-19T03:35:50.621Z,3.10
2018-10-19T03:38:18.781Z,3.10
2018-10-19T03:40:46.856Z,3.10
2018-10-19T03:43:14.941Z,3.10
2018-10-19T03:45:43.193Z,3.10
2018-10-19T03:48:11.581Z,3.10
2018-10-19T03:50:39.811Z,3.00
2018-10-19T03:53:08.169Z,3.00
2018-10-19T03:55:36.413Z,2.90
2018-10-19T03:58:04.862Z,2.90
2018-10-19T04:00:32.973Z,2.90
2018-10-19T04:03:01.081Z,2.90
2018-10-19T04:05:29.117Z,2.80
2018-10-19T04:07:57.178Z,2.80
2018-10-19T04:10:25.268Z,2.80
2018-10-19T04:12:53.528Z,2.80
2018-10-19T04:15:21.878Z,2.70
2018-10-19T04:17:50.086Z,2.60
2018-10-19T04:20:18.316Z,2.50
2018-10-19T04:22:46.355Z,2.40
2018-10-19T04:25:14.440Z,2.40
2018-10-19T04:27:42.606Z,2.50
2018-10-19T04:30:10.689Z,2.60
2018-10-19T04:32:40.067Z,2.60
2018-10-19T04:35:08.222Z,2.60
2018-10-19T04:37:36.328Z,2.70
2018-10-19T04:40:05.096Z,2.70
2018-10-19T04:42:33.204Z,2.80
2018-10-19T04:45:01.459Z,2.80
2018-10-19T04:47:29.572Z,2.80
2018-10-19T04:49:57.703Z,2.80
2018-10-19T04:52:25.908Z,2.80
2018-10-19T04:54:54.291Z,2.80
2018-10-19T04:57:22.680Z,2.80
2018-10-19T04:59:51.025Z,2.80
2018-10-19T05:02:19.137Z,2.80
2018-10-19T05:04:47.295Z,2.80
2018-10-19T05:07:15.574Z,2.80
2018-10-19T05:09:43.934Z,2.90
2018-10-19T05:12:11.989Z,2.90
2018-10-19T05:14:40.821Z,2.90
2018-10-19T05:17:09.021Z,3.00
2018-10-19T05:19:37.172Z,3.10
2018-10-19T05:22:05.620Z,3.10
2018-10-19T05:24:33.813Z,3.20
2018-10-19T05:27:02.097Z,3.20
2018-10-19T05:29:30.481Z,3.20
2018-10-19T05:31:58.588Z,3.30
2018-10-19T05:34:26.716Z,3.40
2018-10-19T05:36:55.121Z,3.50
2018-10-19T05:39:23.240Z,3.70
2018-10-19T05:41:51.605Z,3.70
2018-10-19T05:44:19.710Z,3.90
2018-10-19T05:46:48.003Z,4.00
2018-10-19T05:49:16.259Z,4.20
2018-10-19T05:51:44.773Z,4.30
2018-10-19T05:54:13.165Z,4.30
2018-10-19T05:56:41.384Z,4.40
2018-10-19T05:59:09.825Z,4.50
2018-10-19T06:01:38.202Z,4.60
2018-10-19T06:04:06.607Z,4.70
2018-10-19T06:06:34.716Z,4.80
2018-10-19T06:09:03.115Z,4.90
2018-10-19T06:11:36.116Z,5.00
2018-10-19T06:14:06.662Z,5.10
2018-10-19T06:16:35.374Z,5.20
2018-10-19T06:19:03.509Z,5.40
2018-10-19T06:21:31.991Z,5.60
2018-10-19T06:24:00.083Z,5.70
2018-10-19T06:26:28.254Z,5.90
2018-10-19T06:28:56.849Z,6.00
2018-10-19T06:31:25.001Z,6.10
2018-10-19T06:33:54.002Z,6.20
2018-10-19T06:36:22.342Z,6.30
2018-10-19T06:38:50.742Z,6.30
2018-10-19T06:41:19.034Z,6.50
2018-10-19T06:43:47.290Z,6.60
2018-10-19T06:46:15.378Z,6.70
2018-10-19T06:48:43.410Z,6.80
2018-10-19T06:51:14.633Z,6.90
2018-10-19T06:53:42.859Z,6.90
2018-10-19T06:56:11.515Z,7.00
2018-10-19T06:58:47.381Z,7.00
2018-10-19T07:01:25.123Z,7.00
2018-10-19T07:03:56.045Z,7.20
2018-10-19T07:06:26.340Z,7.30
2018-10-19T07:08:57.175Z,7.40
2018-10-19T07:11:28.976Z,7.50
2018-10-19T07:13:59.925Z,7.50
2018-10-19T07:16:35.427Z,7.70
2018-10-19T07:19:06.667Z,7.80
2018-10-19T07:21:34.973Z,7.80
2018-10-19T07:24:03.151Z,7.70
2018-10-19T07:26:31.243Z,7.70
2018-10-19T07:28:59.656Z,7.90
2018-10-19T07:31:27.813Z,7.90
2018-10-19T07:33:55.896Z,8.00
2018-10-19T07:36:24.206Z,8.20
2018-10-19T07:41:49.863Z,8.40
2018-10-19T07:44:17.914Z,8.50
2018-10-19T07:46:46.171Z,8.50
2018-10-19T07:49:14.280Z,8.60
2018-10-19T07:51:42.544Z,8.30
2018-10-19T07:54:10.836Z,8.40
2018-10-19T07:56:38.924Z,8.60
2018-10-19T07:59:07.397Z,8.70
2018-10-19T08:01:35.451Z,8.70
2018-10-19T08:04:03.561Z,8.70
2018-10-19T08:06:31.691Z,8.90
2018-10-19T08:08:59.777Z,9.00
2018-10-19T08:11:28.119Z,9.30
2018-10-19T08:13:56.161Z,9.50
2018-10-19T08:16:24.291Z,9.80
2018-10-19T08:18:52.385Z,10.00
2018-10-19T08:21:20.421Z,10.10
2018-10-19T08:23:48.640Z,10.10
2018-10-19T08:26:16.725Z,10.20
2018-10-19T08:28:44.873Z,10.50
2018-10-19T08:31:13.129Z,10.30
2018-10-19T08:33:41.340Z,10.50
2018-10-19T08:36:09.510Z,10.60
2018-10-19T08:38:37.559Z,10.70
2018-10-19T08:41:05.710Z,10.60
2018-10-19T08:43:33.700Z,10.60
2018-10-19T08:46:07.410Z,10.60
2018-10-19T08:48:35.805Z,10.90
2018-10-19T08:51:04.203Z,11.00
2018-10-19T08:53:32.408Z,11.30
2018-10-19T08:56:00.446Z,11.40
2018-10-19T08:58:29.054Z,11.30
2018-10-19T09:00:57.200Z,11.40
2018-10-19T09:03:25.358Z,11.40
2018-10-19T09:05:53.463Z,11.40
2018-10-19T09:08:21.594Z,11.40
2018-10-19T09:10:49.714Z,11.40
2018-10-19T09:13:17.853Z,11.30
2018-10-19T09:15:46.026Z,11.60
2018-10-19T09:18:14.106Z,12.10
2018-10-19T09:20:42.303Z,12.50
2018-10-19T09:23:10.512Z,12.70
2018-10-19T09:25:38.832Z,12.50
2018-10-19T09:28:06.885Z,12.10
2018-10-19T09:30:35.085Z,12.20
2018-10-19T09:33:03.418Z,12.20
2018-10-19T09:35:31.541Z,12.20
2018-10-19T09:37:59.628Z,12.00
2018-10-19T09:40:27.904Z,11.90
2018-10-19T09:42:56.078Z,12.00
2018-10-19T09:45:24.167Z,12.50
2018-10-19T09:47:52.185Z,12.90
2018-10-19T09:50:20.282Z,13.10
2018-10-19T09:52:48.327Z,13.10
2018-10-19T09:55:16.503Z,13.10
2018-10-19T09:57:44.706Z,13.20
2018-10-19T10:00:18.580Z,13.10
2018-10-19T10:02:47.548Z,13.30
2018-10-19T10:05:15.646Z,13.30
2018-10-19T10:07:43.963Z,12.90
2018-10-19T10:10:12.136Z,12.60
2018-10-19T10:12:40.312Z,12.40
2018-10-19T10:15:08.491Z,12.40
2018-10-19T10:17:36.476Z,12.40
2018-10-19T10:20:04.933Z,12.40
2018-10-19T10:22:33.124Z,12.50
2018-10-19T10:25:01.435Z,12.50
2018-10-19T10:27:29.586Z,12.70
2018-10-19T10:29:57.634Z,12.80
2018-10-19T10:32:25.889Z,13.00
2018-10-19T10:34:54.180Z,13.20
2018-10-19T10:37:22.485Z,13.20
2018-10-19T10:39:50.662Z,13.30
2018-10-19T10:42:18.786Z,13.40
2018-10-19T10:44:47.168Z,13.60
2018-10-19T10:47:15.395Z,13.60
2018-10-19T10:49:43.571Z,13.80
2018-10-19T10:52:11.669Z,13.90
2018-10-19T10:54:39.765Z,14.10
2018-10-19T10:57:08.169Z,14.10
2018-10-19T10:59:36.244Z,14.20
2018-10-19T11:02:04.645Z,14.40
2018-10-19T11:04:32.689Z,14.50
2018-10-19T11:07:00.841Z,14.70
2018-10-19T11:09:28.857Z,14.90
2018-10-19T11:11:57.021Z,14.90
2018-10-19T11:14:25.218Z,15.00
2018-10-19T11:16:53.422Z,15.00
2018-10-19T11:19:21.546Z,15.10
2018-10-19T11:21:49.853Z,15.20
2018-10-19T11:24:18.020Z,15.30
2018-10-19T11:26:46.126Z,15.40
2018-10-19T11:29:14.235Z,15.40
2018-10-19T11:31:42.344Z,15.40
2018-10-19T11:34:10.554Z,15.40
2018-10-19T11:36:38.748Z,15.50
2018-10-19T11:39:08.146Z,15.60
2018-10-19T11:41:36.376Z,15.80
2018-10-19T11:44:04.633Z,15.80
2018-10-19T11:46:32.833Z,15.70
2018-10-19T11:49:01.162Z,15.80
2018-10-19T11:51:29.380Z,15.80
2018-10-19T11:53:57.533Z,16.00
2018-10-19T11:56:25.643Z,16.10
2018-10-19T11:58:53.679Z,16.10
2018-10-19T12:01:22.019Z,16.10
2018-10-19T12:03:50.037Z,16.10
2018-10-19T12:06:18.336Z,16.20
2018-10-19T12:08:46.486Z,16.30
2018-10-19T12:11:14.681Z,16.20
2018-10-19T12:13:42.744Z,16.20
2018-10-19T12:16:10.989Z,16.30
2018-10-19T12:18:39.119Z,16.40
2018-10-19T12:21:07.529Z,16.50
2018-10-19T12:23:35.637Z,16.50
2018-10-19T12:26:04.094Z,16.60
2018-10-19T12:28:32.188Z,16.60
2018-10-19T12:31:00.341Z,16.70
2018-10-19T12:33:28.465Z,16.70
2018-10-19T12:35:56.610Z,16.60
2018-10-19T12:38:24.797Z,16.70
2018-10-19T12:40:53.028Z,16.80
2018-10-19T12:43:21.181Z,16.90
2018-10-19T12:46:28.244Z,17.00
2018-10-19T12:48:56.753Z,16.90
2018-10-19T12:51:24.884Z,17.00
2018-10-19T12:53:53.149Z,17.00
2018-10-19T12:56:21.821Z,17.00
2018-10-19T12:58:50.826Z,17.00
2018-10-19T13:01:19.459Z,17.10
2018-10-19T13:03:47.540Z,17.00
2018-10-19T13:06:15.581Z,16.90
2018-10-19T13:08:43.891Z,16.80
2018-10-19T13:11:11.936Z,16.90
2018-10-19T13:13:40.245Z,16.90
2018-10-19T13:16:08.544Z,17.00
2018-10-19T13:18:36.672Z,17.10
2018-10-19T13:21:04.892Z,17.10
2018-10-19T13:23:33.457Z,17.10
2018-10-19T13:26:01.846Z,17.20
2018-10-19T13:28:30.235Z,17.10
2018-10-19T13:30:58.402Z,17.00
2018-10-19T13:33:26.883Z,16.90
2018-10-19T13:35:55.072Z,16.80
2018-10-19T13:38:23.609Z,16.90
2018-10-19T13:40:52.654Z,17.00
2018-10-19T13:43:21.002Z,17.00
2018-10-19T13:45:49.438Z,17.00
2018-10-19T13:48:17.808Z,17.10
2018-10-19T13:50:45.971Z,17.10
2018-10-19T13:53:14.148Z,17.10
2018-10-19T13:55:42.394Z,17.00
2018-10-19T13:58:10.639Z,17.00
2018-10-19T14:00:38.754Z,17.10
2018-10-19T14:03:06.821Z,17.00
2018-10-19T14:05:34.996Z,17.10
2018-10-19T14:08:03.070Z,17.10
2018-10-19T14:10:31.326Z,17.10
2018-10-19T14:12:59.528Z,17.10
2018-10-19T14:15:27.677Z,17.00
2018-10-19T14:17:55.764Z,17.00
2018-10-19T14:20:24.015Z,16.90
2018-10-19T14:22:52.160Z,16.80
2018-10-19T14:25:20.277Z,16.80
2018-10-19T14:27:48.369Z,16.60
2018-10-19T14:30:17.542Z,16.60
2018-10-19T14:32:45.649Z,16.60
2018-10-19T14:38:05.640Z,16.60
2018-10-19T14:40:33.849Z,16.50
2018-10-19T14:43:02.105Z,16.50
2018-10-19T14:45:30.168Z,16.50
2018-10-19T14:47:58.319Z,16.50
2018-10-19T14:50:26.415Z,16.40
2018-10-19T14:52:54.621Z,16.40
2018-10-19T14:55:22.792Z,16.30
2018-10-19T14:57:50.928Z,16.30
2018-10-19T15:00:19.378Z,16.20
2018-10-19T15:02:47.713Z,16.20
2018-10-19T15:05:17.369Z,16.20
2018-10-19T15:07:45.572Z,16.10
2018-10-19T15:10:15.725Z,16.00
2018-10-19T15:12:44.076Z,15.80
2018-10-19T15:15:14.472Z,15.70
2018-10-19T15:17:42.722Z,15.70
2018-10-19T15:20:11.461Z,15.60
2018-10-19T15:22:39.672Z,15.40
2018-10-19T15:25:08.731Z,15.40
2018-10-19T15:27:37.708Z,15.20
2018-10-19T15:30:07.059Z,15.20
2018-10-19T15:32:35.345Z,15.10
2018-10-19T15:35:03.509Z,14.90
2018-10-19T15:37:31.621Z,14.90
2018-10-19T15:39:59.764Z,14.70
2018-10-19T15:42:27.833Z,14.70
2018-10-19T15:44:55.965Z,14.50
2018-10-19T15:47:25.885Z,14.40
2018-10-19T15:49:55.275Z,14.20
2018-10-19T15:52:23.274Z,14.10
2018-10-19T15:54:51.935Z,13.90
2018-10-19T15:57:20.455Z,13.80
2018-10-19T15:59:48.874Z,13.60
2018-10-19T16:02:17.277Z,13.50
2018-10-19T16:04:45.858Z,13.40
2018-10-19T16:07:14.288Z,13.40
2018-10-19T16:09:42.489Z,13.50
2018-10-19T16:12:10.583Z,13.40
2018-10-19T16:14:38.709Z,13.20
2018-10-19T16:17:07.012Z,13.20
2018-10-19T16:19:35.074Z,13.10
2018-10-19T16:22:03.152Z,13.10
2018-10-19T16:24:31.324Z,13.00
2018-10-19T16:26:59.530Z,12.90
2018-10-19T16:29:27.581Z,12.80
2018-10-19T16:31:55.731Z,12.70
2018-10-19T16:34:23.985Z,12.60
2018-10-19T16:36:52.084Z,12.60
2018-10-19T16:39:20.137Z,12.50
2018-10-19T16:41:48.435Z,12.40
2018-10-19T16:44:16.852Z,12.30
2018-10-19T16:46:44.917Z,11.90
2018-10-19T16:49:13.161Z,11.60
2018-10-19T16:51:41.353Z,11.20
2018-10-19T16:54:09.553Z,10.90
2018-10-19T16:56:37.616Z,10.80
2018-10-19T16:59:05.796Z,10.70
2018-10-19T17:01:33.853Z,10.60
2018-10-19T17:04:01.965Z,10.60
2018-10-19T17:06:29.997Z,10.50
2018-10-19T17:08:58.216Z,10.40
2018-10-19T17:11:26.377Z,10.40
2018-10-19T17:13:54.628Z,10.40
2018-10-19T17:16:22.814Z,10.30
2018-10-19T17:18:51.119Z,10.20
2018-10-19T17:21:19.237Z,10.00
2018-10-19T17:23:47.422Z,10.00
2018-10-19T17:26:15.491Z,9.90
2018-10-19T17:28:43.592Z,9.90
2018-10-19T17:31:11.930Z,9.80
2018-10-19T17:33:40.433Z,9.70
2018-10-19T17:36:08.706Z,9.60
2018-10-19T17:38:36.925Z,9.40
2018-10-19T17:41:05.381Z,9.20
2018-10-19T17:43:33.651Z,9.10
2018-10-19T17:46:01.735Z,9.00
2018-10-19T17:48:29.885Z,8.90
2018-10-19T17:50:58.076Z,8.80
2018-10-19T17:53:26.229Z,8.70
2018-10-19T17:55:54.428Z,8.70
2018-10-19T17:58:22.506Z,8.70
2018-10-19T18:00:50.663Z,8.70
2018-10-19T18:03:18.677Z,8.70
2018-10-19T18:05:46.703Z,8.50
2018-10-19T18:08:15.017Z,8.40
2018-10-19T18:10:43.267Z,8.20
2018-10-19T18:13:11.354Z,8.10
2018-10-19T18:15:39.593Z,8.10
2018-10-19T18:18:07.666Z,8.00
2018-10-19T18:20:35.996Z,7.90
2018-10-19T18:23:04.265Z,7.80
2018-10-19T18:25:32.241Z,7.80
2018-10-19T18:28:00.263Z,7.70
2018-10-19T18:30:28.370Z,7.70
2018-10-19T18:32:56.546Z,7.60
2018-10-19T18:35:24.877Z,7.60
2018-10-19T18:37:53.158Z,7.50
2018-10-19T18:40:21.358Z,7.50
2018-10-19T18:42:49.470Z,7.60
2018-10-19T18:45:17.620Z,7.70
2018-10-19T18:47:45.915Z,7.70
2018-10-19T18:50:14.188Z,7.70
2018-10-19T18:52:42.144Z,7.60
2018-10-19T18:55:10.308Z,7.50
2018-10-19T18:57:38.390Z,7.50
2018-10-19T19:00:08.800Z,7.40
2018-10-19T19:02:36.901Z,7.30
2018-10-19T19:05:05.236Z,7.20
2018-10-19T19:07:33.239Z,7.10
2018-10-19T19:10:06.816Z,7.10
2018-10-19T19:12:34.989Z,7.10
2018-10-19T19:15:03.212Z,7.10
2018-10-19T19:17:31.376Z,7.20
2018-10-19T19:20:04.992Z,7.30
2018-10-19T19:22:33.145Z,7.30
2018-10-19T19:25:06.769Z,7.30
2018-10-19T19:27:34.832Z,7.20
2018-10-19T19:30:03.020Z,7.00
2018-10-19T19:32:31.176Z,6.70
2018-10-19T19:34:59.265Z,6.50
2018-10-19T19:37:27.447Z,6.30
2018-10-19T19:39:55.492Z,6.30
2018-10-19T19:42:29.227Z,6.30
2018-10-19T19:44:57.260Z,6.30
2018-10-19T19:47:30.889Z,6.30
2018-10-19T19:50:00.522Z,6.30
2018-10-19T19:52:28.661Z,6.30
2018-10-19T19:54:56.769Z,6.30
2018-10-19T19:57:24.820Z,6.50
2018-10-19T19:59:53.305Z,6.50
2018-10-19T20:02:21.369Z,6.60
2018-10-19T20:04:49.672Z,6.60
2018-10-19T20:07:17.713Z,6.70
2018-10-19T20:09:46.122Z,6.60
2018-10-19T20:12:14.290Z,6.50
2018-10-19T20:14:42.463Z,6.40
2018-10-19T20:17:10.580Z,6.30
2018-10-19T20:19:38.700Z,6.20
2018-10-19T20:22:06.876Z,6.20
2018-10-19T20:24:37.394Z,6.00
2018-10-19T20:27:05.788Z,5.90
2018-10-19T20:29:34.208Z,5.80
2018-10-19T20:32:02.333Z,5.70
2018-10-19T20:34:30.449Z,5.70
2018-10-19T20:36:58.597Z,5.60
2018-10-19T20:39:26.782Z,5.70
2018-10-19T20:41:54.942Z,5.80
2018-10-19T20:44:23.033Z,5.80
2018-10-19T20:46:51.185Z,5.80
2018-10-19T20:49:21.023Z,5.70
2018-10-19T20:51:49.681Z,5.60
2018-10-19T20:54:17.772Z,5.60
2018-10-19T20:56:45.941Z,5.50
2018-10-19T20:59:14.043Z,5.30
2018-10-19T21:01:42.128Z,5.10
2018-10-19T21:04:10.260Z,5.00
2018-10-19T21:06:38.424Z,5.00
2018-10-19T21:09:08.539Z,4.90
2018-10-19T21:11:37.174Z,4.90
2018-10-19T21:14:05.787Z,5.00
2018-10-19T21:16:34.024Z,5.10
2018-10-19T21:19:02.089Z,5.30
2018-10-19T21:21:30.693Z,5.50
2018-10-19T21:23:58.742Z,5.70
2018-10-19T21:26:27.119Z,5.70
2018-10-19T21:28:55.326Z,5.50
2018-10-19T21:31:23.369Z,5.40
2018-10-19T21:34:04.464Z,5.30
2018-10-19T21:36:32.505Z,5.20
2018-10-19T21:39:00.615Z,5.20
2018-10-19T21:41:28.791Z,5.30
2018-10-19T21:43:57.848Z,5.30
2018-10-19T21:46:25.843Z,5.30
2018-10-19T21:48:53.907Z,5.30
2018-10-19T21:51:33.065Z,5.20
2018-10-19T21:54:03.367Z,5.20
2018-10-19T21:56:33.728Z,5.10
2018-10-19T21:59:04.004Z,5.10
2018-10-19T22:01:43.374Z,5.20
2018-10-19T22:04:14.267Z,5.20
2018-10-19T22:06:44.956Z,5.10
2018-10-19T22:09:15.086Z,5.00
2018-10-19T22:11:43.106Z,5.00
2018-10-19T22:14:11.413Z,5.00
2018-10-19T22:16:40.113Z,5.00
2018-10-19T22:19:09.134Z,4.90
2018-10-19T22:21:37.343Z,4.90
2018-10-19T22:24:06.385Z,5.00
2018-10-19T22:26:34.627Z,4.90
2018-10-19T22:29:02.737Z,4.80
2018-10-19T22:31:30.729Z,4.80
2018-10-19T22:33:58.848Z,4.70
2018-10-19T22:36:27.141Z,4.70
2018-10-19T22:38:55.314Z,4.70
2018-10-19T22:41:23.397Z,4.70
2018-10-19T22:43:51.531Z,4.60
2018-10-19T22:46:19.839Z,4.60
2018-10-19T22:48:48.009Z,4.70
2018-10-19T22:51:16.175Z,4.70
2018-10-19T22:53:44.340Z,4.70
2018-10-19T22:56:12.584Z,4.60
2018-10-19T22:58:40.908Z,4.60
2018-10-19T23:01:09.121Z,4.70
2018-10-19T23:03:37.411Z,4.70
2018-10-19T23:06:05.664Z,4.50
2018-10-19T23:08:33.644Z,4.40
2018-10-19T23:11:01.737Z,4.40
2018-10-19T23:13:29.776Z,4.30
2018-10-19T23:15:57.944Z,4.30
2018-10-19T23:18:26.003Z,4.30
2018-10-19T23:20:54.086Z,4.20
2018-10-19T23:23:22.159Z,4.20
2018-10-19T23:25:50.445Z,4.20
2018-10-19T23:28:18.601Z,4.20
2018-10-19T23:30:46.961Z,4.10
2018-10-19T23:33:15.132Z,4.20
2018-10-19T23:35:43.253Z,4.20
2018-10-19T23:38:11.414Z,4.30
2018-10-19T23:40:39.604Z,4.40
2018-10-19T23:43:07.828Z,4.30
2018-10-19T23:45:36.106Z,4.20
2018-10-19T23:48:04.513Z,4.00
2018-10-19T23:50:32.797Z,3.90
2018-10-19T23:53:00.914Z,3.80
2018-10-19T23:55:29.132Z,3.80
2018-10-19T23:57:57.545Z,3.80
